Terminal Aerodrome Forecast
Issued by NWS Cleveland, OH

Home | Current Version | Previous Version | Text Only | Print | Product List | Glossary On
Versions: 1 2 3 4 5 6 7 8 9 10 11 12 13 14 15 16 17 18
000
FTUS41 KCLE 021123
TAFTOL
TAF
KTOL 021123Z 0212/0312 02005KT P6SM SCT015 BKN035
      TEMPO 0212/0215 5SM BR BKN015
     FM021600 05010KT P6SM SCT035
      TEMPO 0216/0218 BKN035
     FM022000 05012KT P6SM SCT250
     FM030100 05005KT P6SM SKC=

USA.gov is the U.S. government's official web portal to all federal, state and local government web resources and services.